sensor_id;sensor_type;location;lat;lon;timestamp;temperature;humidity
21282;DHT22;10800;53.096;18.328;2023-01-20T00:03:53;-0.10;99.90
21282;DHT22;10800;53.096;18.328;2023-01-20T00:09:00;-0.10;99.90
21282;DHT22;10800;53.096;18.328;2023-01-20T00:14:09;-0.10;99.90
21282;DHT22;10800;53.096;18.328;2023-01-20T00:19:13;-0.10;99.90
21282;DHT22;10800;53.096;18.328;2023-01-20T00:24:19;-0.20;99.90
21282;DHT22;10800;53.096;18.328;2023-01-20T00:29:24;-0.10;99.90
21282;DHT22;10800;53.096;18.328;2023-01-20T00:34:30;-0.10;99.90
21282;DHT22;10800;53.096;18.328;2023-01-20T00:39:35;-0.20;99.90
21282;DHT22;10800;53.096;18.328;2023-01-20T00:44:40;-0.20;99.90
21282;DHT22;10800;53.096;18.328;2023-01-20T00:49:46;-0.20;99.90
21282;DHT22;10800;53.096;18.328;2023-01-20T00:54:52;-0.20;99.90
21282;DHT22;10800;53.096;18.328;2023-01-20T00:59:57;-0.20;99.90
21282;DHT22;10800;53.096;18.328;2023-01-20T01:05:03;-0.20;99.90
21282;DHT22;10800;53.096;18.328;2023-01-20T01:10:09;-0.30;99.90
21282;DHT22;10800;53.096;18.328;2023-01-20T01:15:15;-0.20;99.90
21282;DHT22;10800;53.096;18.328;2023-01-20T01:20:21;-0.30;99.90
21282;DHT22;10800;53.096;18.328;2023-01-20T01:25:27;-0.30;99.90
21282;DHT22;10800;53.096;18.328;2023-01-20T01:30:33;-0.20;99.90
21282;DHT22;10800;53.096;18.328;2023-01-20T01:35:38;-0.20;99.90
21282;DHT22;10800;53.096;18.328;2023-01-20T01:40:51;-0.20;99.90
21282;DHT22;10800;53.096;18.328;2023-01-20T01:45:57;-0.20;99.90
21282;DHT22;10800;53.096;18.328;2023-01-20T01:51:14;-0.20;99.90
21282;DHT22;10800;53.096;18.328;2023-01-20T01:56:16;-0.30;99.90
21282;DHT22;10800;53.096;18.328;2023-01-20T02:01:21;-0.20;99.90
21282;DHT22;10800;53.096;18.328;2023-01-20T02:06:37;-0.20;99.90
21282;DHT22;10800;53.096;18.328;2023-01-20T02:11:41;-0.20;99.90
21282;DHT22;10800;53.096;18.328;2023-01-20T02:17:16;-0.20;99.90
21282;DHT22;10800;53.096;18.328;2023-01-20T02:39:04;-0.20;99.90
21282;DHT22;10800;53.096;18.328;2023-01-20T02:44:22;-0.30;99.90
21282;DHT22;10800;53.096;18.328;2023-01-20T02:49:35;-0.20;99.90
21282;DHT22;10800;53.096;18.328;2023-01-20T02:54:43;-0.20;99.90
21282;DHT22;10800;53.096;18.328;2023-01-20T02:59:51;-0.20;99.90
21282;DHT22;10800;53.096;18.328;2023-01-20T03:05:02;-0.20;99.90
21282;DHT22;10800;53.096;18.328;2023-01-20T03:10:10;-0.10;99.90
21282;DHT22;10800;53.096;18.328;2023-01-20T03:15:18;-0.10;99.90
21282;DHT22;10800;53.096;18.328;2023-01-20T03:20:24;-0.10;99.90
21282;DHT22;10800;53.096;18.328;2023-01-20T03:25:33;-0.10;99.90
21282;DHT22;10800;53.096;18.328;2023-01-20T03:30:38;-0.20;99.90
21282;DHT22;10800;53.096;18.328;2023-01-20T03:35:44;-0.10;99.90
21282;DHT22;10800;53.096;18.328;2023-01-20T03:41:03;-0.10;99.90
21282;DHT22;10800;53.096;18.328;2023-01-20T03:46:07;-0.20;99.90
21282;DHT22;10800;53.096;18.328;2023-01-20T03:51:33;-0.10;99.90
21282;DHT22;10800;53.096;18.328;2023-01-20T03:56:48;-0.10;99.90
21282;DHT22;10800;53.096;18.328;2023-01-20T04:01:48;-0.20;99.90
21282;DHT22;10800;53.096;18.328;2023-01-20T04:06:54;-0.10;99.90
21282;DHT22;10800;53.096;18.328;2023-01-20T04:12:00;-0.10;99.90
21282;DHT22;10800;53.096;18.328;2023-01-20T04:17:07;-0.20;99.90
21282;DHT22;10800;53.096;18.328;2023-01-20T04:22:23;-0.20;99.90
21282;DHT22;10800;53.096;18.328;2023-01-20T04:27:24;-0.20;99.90
21282;DHT22;10800;53.096;18.328;2023-01-20T04:32:29;-0.20;99.90
21282;DHT22;10800;53.096;18.328;2023-01-20T04:37:35;-0.20;99.90
21282;DHT22;10800;53.096;18.328;2023-01-20T04:42:40;-0.20;99.90
21282;DHT22;10800;53.096;18.328;2023-01-20T04:47:46;-0.20;99.90
21282;DHT22;10800;53.096;18.328;2023-01-20T04:52:55;-0.20;99.90
21282;DHT22;10800;53.096;18.328;2023-01-20T04:58:04;-0.20;99.90
21282;DHT22;10800;53.096;18.328;2023-01-20T05:03:09;-0.20;99.90
21282;DHT22;10800;53.096;18.328;2023-01-20T05:08:17;-0.10;99.90
21282;DHT22;10800;53.096;18.328;2023-01-20T05:13:23;-0.10;99.90
21282;DHT22;10800;53.096;18.328;2023-01-20T05:18:28;-0.20;99.90
21282;DHT22;10800;53.096;18.328;2023-01-20T05:23:34;-0.20;99.90
21282;DHT22;10800;53.096;18.328;2023-01-20T05:28:40;-0.20;99.90
21282;DHT22;10800;53.096;18.328;2023-01-20T05:33:46;-0.20;99.90
21282;DHT22;10800;53.096;18.328;2023-01-20T05:38:51;-0.40;99.90
21282;DHT22;10800;53.096;18.328;2023-01-20T05:43:56;-0.30;99.90
21282;DHT22;10800;53.096;18.328;2023-01-20T05:49:02;-0.30;99.90
21282;DHT22;10800;53.096;18.328;2023-01-20T05:54:16;-0.30;99.90
21282;DHT22;10800;53.096;18.328;2023-01-20T05:59:22;-0.40;99.90
21282;DHT22;10800;53.096;18.328;2023-01-20T06:04:27;-0.40;99.90
21282;DHT22;10800;53.096;18.328;2023-01-20T06:09:33;-0.40;99.90
21282;DHT22;10800;53.096;18.328;2023-01-20T06:14:44;-0.40;99.90
21282;DHT22;10800;53.096;18.328;2023-01-20T06:20:03;-0.40;99.90
21282;DHT22;10800;53.096;18.328;2023-01-20T06:25:10;-0.30;99.90
21282;DHT22;10800;53.096;18.328;2023-01-20T06:30:19;-0.30;99.90
21282;DHT22;10800;53.096;18.328;2023-01-20T06:35:25;-0.30;99.90
21282;DHT22;10800;53.096;18.328;2023-01-20T06:40:33;-0.30;99.90
21282;DHT22;10800;53.096;18.328;2023-01-20T06:45:42;-0.20;99.90
21282;DHT22;10800;53.096;18.328;2023-01-20T06:51:12;-0.20;99.90
21282;DHT22;10800;53.096;18.328;2023-01-20T06:56:22;-0.20;99.90
21282;DHT22;10800;53.096;18.328;2023-01-20T07:02:11;-0.20;99.90
21282;DHT22;10800;53.096;18.328;2023-01-20T07:07:53;-0.20;99.90
21282;DHT22;10800;53.096;18.328;2023-01-20T07:13:28;-0.20;99.90
21282;DHT22;10800;53.096;18.328;2023-01-20T07:19:03;-0.20;99.90
21282;DHT22;10800;53.096;18.328;2023-01-20T07:24:41;-0.20;99.90
21282;DHT22;10800;53.096;18.328;2023-01-20T07:30:26;-0.20;99.90
21282;DHT22;10800;53.096;18.328;2023-01-20T07:35:53;-0.20;99.90
21282;DHT22;10800;53.096;18.328;2023-01-20T07:41:06;-0.10;99.90
21282;DHT22;10800;53.096;18.328;2023-01-20T07:46:27;-0.10;99.90
21282;DHT22;10800;53.096;18.328;2023-01-20T07:51:54;-0.10;99.90
21282;DHT22;10800;53.096;18.328;2023-01-20T07:57:09;0.00;99.90
21282;DHT22;10800;53.096;18.328;2023-01-20T08:02:24;0.10;99.90
21282;DHT22;10800;53.096;18.328;2023-01-20T08:07:51;0.10;99.90
21282;DHT22;10800;53.096;18.328;2023-01-20T08:13:15;0.10;99.90
21282;DHT22;10800;53.096;18.328;2023-01-20T08:18:52;0.20;99.90
21282;DHT22;10800;53.096;18.328;2023-01-20T08:24:08;0.20;99.90
21282;DHT22;10800;53.096;18.328;2023-01-20T08:29:37;0.20;99.90
21282;DHT22;10800;53.096;18.328;2023-01-20T08:34:52;0.20;99.90
21282;DHT22;10800;53.096;18.328;2023-01-20T08:40:28;0.20;99.90
21282;DHT22;10800;53.096;18.328;2023-01-20T08:46:02;0.30;99.90
21282;DHT22;10800;53.096;18.328;2023-01-20T08:51:42;0.30;99.90
21282;DHT22;10800;53.096;18.328;2023-01-20T08:57:08;0.30;99.90
21282;DHT22;10800;53.096;18.328;2023-01-20T09:02:16;0.30;99.90
21282;DHT22;10800;53.096;18.328;2023-01-20T09:07:30;0.30;99.90
21282;DHT22;10800;53.096;18.328;2023-01-20T09:12:42;0.40;99.90
21282;DHT22;10800;53.096;18.328;2023-01-20T09:18:12;0.30;99.90
21282;DHT22;10800;53.096;18.328;2023-01-20T09:23:48;0.50;99.90
21282;DHT22;10800;53.096;18.328;2023-01-20T09:29:19;0.70;99.90
21282;DHT22;10800;53.096;18.328;2023-01-20T09:34:27;0.80;99.90
21282;DHT22;10800;53.096;18.328;2023-01-20T09:39:33;0.90;99.90
21282;DHT22;10800;53.096;18.328;2023-01-20T09:50:38;1.00;99.90
21282;DHT22;10800;53.096;18.328;2023-01-20T09:56:11;0.90;99.90
21282;DHT22;10800;53.096;18.328;2023-01-20T10:01:40;1.00;99.90
21282;DHT22;10800;53.096;18.328;2023-01-20T10:06:55;1.00;99.90
21282;DHT22;10800;53.096;18.328;2023-01-20T10:12:27;1.10;99.90
21282;DHT22;10800;53.096;18.328;2023-01-20T10:28:39;1.50;99.90
21282;DHT22;10800;53.096;18.328;2023-01-20T10:34:47;1.70;99.90
21282;DHT22;10800;53.096;18.328;2023-01-20T10:40:28;1.70;99.90
21282;DHT22;10800;53.096;18.328;2023-01-20T10:51:23;1.50;99.90
21282;DHT22;10800;53.096;18.328;2023-01-20T10:56:44;1.40;99.90
21282;DHT22;10800;53.096;18.328;2023-01-20T11:07:24;1.60;99.90
21282;DHT22;10800;53.096;18.328;2023-01-20T11:12:32;1.40;99.90
21282;DHT22;10800;53.096;18.328;2023-01-20T11:17:39;1.30;99.90
21282;DHT22;10800;53.096;18.328;2023-01-20T11:22:47;1.30;99.90
21282;DHT22;10800;53.096;18.328;2023-01-20T11:27:54;1.40;99.90
21282;DHT22;10800;53.096;18.328;2023-01-20T11:33:18;1.30;99.90
21282;DHT22;10800;53.096;18.328;2023-01-20T11:38:26;1.30;99.90
21282;DHT22;10800;53.096;18.328;2023-01-20T11:43:36;1.40;99.90
21282;DHT22;10800;53.096;18.328;2023-01-20T11:48:45;1.40;99.90
21282;DHT22;10800;53.096;18.328;2023-01-20T11:54:07;1.30;99.90
21282;DHT22;10800;53.096;18.328;2023-01-20T11:59:21;1.30;99.90
21282;DHT22;10800;53.096;18.328;2023-01-20T12:04:48;1.40;99.90
21282;DHT22;10800;53.096;18.328;2023-01-20T12:10:00;1.40;99.90
21282;DHT22;10800;53.096;18.328;2023-01-20T12:15:14;1.20;99.90
21282;DHT22;10800;53.096;18.328;2023-01-20T12:20:25;1.30;99.90
21282;DHT22;10800;53.096;18.328;2023-01-20T12:25:54;1.30;99.90
21282;DHT22;10800;53.096;18.328;2023-01-20T12:31:15;1.30;99.90
21282;DHT22;10800;53.096;18.328;2023-01-20T12:37:06;1.30;99.90
21282;DHT22;10800;53.096;18.328;2023-01-20T12:48:33;1.30;99.90
21282;DHT22;10800;53.096;18.328;2023-01-20T12:55:04;1.20;99.90
21282;DHT22;10800;53.096;18.328;2023-01-20T13:18:39;1.10;99.90
21282;DHT22;10800;53.096;18.328;2023-01-20T13:24:17;1.10;99.90
21282;DHT22;10800;53.096;18.328;2023-01-20T13:30:43;1.20;99.90
21282;DHT22;10800;53.096;18.328;2023-01-20T13:36:51;1.00;99.90
21282;DHT22;10800;53.096;18.328;2023-01-20T13:54:44;0.90;99.90
21282;DHT22;10800;53.096;18.328;2023-01-20T14:00:33;0.80;99.90
21282;DHT22;10800;53.096;18.328;2023-01-20T14:05:38;0.80;99.90
21282;DHT22;10800;53.096;18.328;2023-01-20T14:10:48;0.80;99.90
21282;DHT22;10800;53.096;18.328;2023-01-20T14:15:54;0.60;99.90
21282;DHT22;10800;53.096;18.328;2023-01-20T14:21:23;0.50;99.90
21282;DHT22;10800;53.096;18.328;2023-01-20T14:26:36;0.40;99.90
21282;DHT22;10800;53.096;18.328;2023-01-20T14:32:25;0.30;99.90
21282;DHT22;10800;53.096;18.328;2023-01-20T14:38:19;0.30;99.90
21282;DHT22;10800;53.096;18.328;2023-01-20T14:43:30;0.40;99.90
21282;DHT22;10800;53.096;18.328;2023-01-20T14:48:37;0.40;99.90
21282;DHT22;10800;53.096;18.328;2023-01-20T14:59:38;0.30;99.90
21282;DHT22;10800;53.096;18.328;2023-01-20T15:04:44;0.30;99.90
21282;DHT22;10800;53.096;18.328;2023-01-20T15:10:10;0.30;99.90
21282;DHT22;10800;53.096;18.328;2023-01-20T15:15:31;0.30;99.90
21282;DHT22;10800;53.096;18.328;2023-01-20T15:20:53;0.30;99.90
21282;DHT22;10800;53.096;18.328;2023-01-20T15:26:46;0.30;99.90
21282;DHT22;10800;53.096;18.328;2023-01-20T15:31:24;0.20;99.90
21282;DHT22;10800;53.096;18.328;2023-01-20T15:36:31;0.20;99.90
21282;DHT22;10800;53.096;18.328;2023-01-20T15:41:37;0.10;99.90
21282;DHT22;10800;53.096;18.328;2023-01-20T15:46:42;0.10;99.90
21282;DHT22;10800;53.096;18.328;2023-01-20T15:51:48;0.10;99.90
21282;DHT22;10800;53.096;18.328;2023-01-20T15:56:53;0.10;99.90
21282;DHT22;10800;53.096;18.328;2023-01-20T16:01:59;0.10;99.90
21282;DHT22;10800;53.096;18.328;2023-01-20T16:07:04;0.10;99.90
21282;DHT22;10800;53.096;18.328;2023-01-20T16:12:16;0.10;99.90
21282;DHT22;10800;53.096;18.328;2023-01-20T16:17:23;0.10;99.90
21282;DHT22;10800;53.096;18.328;2023-01-20T16:22:29;0.10;99.90
21282;DHT22;10800;53.096;18.328;2023-01-20T16:27:34;0.10;99.90
21282;DHT22;10800;53.096;18.328;2023-01-20T16:32:39;0.00;99.90
21282;DHT22;10800;53.096;18.328;2023-01-20T16:37:47;0.00;99.90
21282;DHT22;10800;53.096;18.328;2023-01-20T16:42:54;0.00;99.90
21282;DHT22;10800;53.096;18.328;2023-01-20T16:47:59;0.00;99.90
21282;DHT22;10800;53.096;18.328;2023-01-20T16:53:05;-0.10;99.90
21282;DHT22;10800;53.096;18.328;2023-01-20T16:58:11;-0.10;99.90
21282;DHT22;10800;53.096;18.328;2023-01-20T17:03:16;-0.10;99.90
21282;DHT22;10800;53.096;18.328;2023-01-20T17:08:24;-0.10;99.90
21282;DHT22;10800;53.096;18.328;2023-01-20T17:13:29;-0.10;99.90
21282;DHT22;10800;53.096;18.328;2023-01-20T17:18:34;-0.10;99.90
21282;DHT22;10800;53.096;18.328;2023-01-20T17:23:40;-0.10;99.90
21282;DHT22;10800;53.096;18.328;2023-01-20T17:28:46;-0.10;99.90
21282;DHT22;10800;53.096;18.328;2023-01-20T17:33:51;-0.10;99.90
21282;DHT22;10800;53.096;18.328;2023-01-20T17:38:57;-0.10;99.90
21282;DHT22;10800;53.096;18.328;2023-01-20T17:44:04;-0.10;99.90
21282;DHT22;10800;53.096;18.328;2023-01-20T17:49:09;-0.10;99.90
21282;DHT22;10800;53.096;18.328;2023-01-20T17:54:14;-0.10;99.90
21282;DHT22;10800;53.096;18.328;2023-01-20T17:59:20;-0.10;99.90
21282;DHT22;10800;53.096;18.328;2023-01-20T18:04:28;-0.10;99.90
21282;DHT22;10800;53.096;18.328;2023-01-20T18:09:34;-0.10;99.90
21282;DHT22;10800;53.096;18.328;2023-01-20T18:14:40;-0.20;99.90
21282;DHT22;10800;53.096;18.328;2023-01-20T18:19:46;-0.10;99.90
21282;DHT22;10800;53.096;18.328;2023-01-20T18:24:52;-0.10;99.90
21282;DHT22;10800;53.096;18.328;2023-01-20T18:29:57;-0.10;99.90
21282;DHT22;10800;53.096;18.328;2023-01-20T18:35:04;0.00;99.90
21282;DHT22;10800;53.096;18.328;2023-01-20T18:40:10;0.00;99.90
21282;DHT22;10800;53.096;18.328;2023-01-20T18:45:16;0.00;99.90
21282;DHT22;10800;53.096;18.328;2023-01-20T18:50:41;0.10;99.90
21282;DHT22;10800;53.096;18.328;2023-01-20T18:55:48;0.10;99.90
21282;DHT22;10800;53.096;18.328;2023-01-20T19:01:00;0.10;99.90
21282;DHT22;10800;53.096;18.328;2023-01-20T19:06:08;0.10;99.90
21282;DHT22;10800;53.096;18.328;2023-01-20T19:11:22;0.10;99.90
21282;DHT22;10800;53.096;18.328;2023-01-20T19:16:31;0.10;99.90
21282;DHT22;10800;53.096;18.328;2023-01-20T19:21:36;0.10;99.90
21282;DHT22;10800;53.096;18.328;2023-01-20T19:26:41;0.10;99.90
21282;DHT22;10800;53.096;18.328;2023-01-20T19:31:47;0.10;99.90
21282;DHT22;10800;53.096;18.328;2023-01-20T19:36:53;0.00;99.90
21282;DHT22;10800;53.096;18.328;2023-01-20T19:42:00;0.10;99.90
21282;DHT22;10800;53.096;18.328;2023-01-20T19:47:05;0.10;99.90
21282;DHT22;10800;53.096;18.328;2023-01-20T19:52:10;0.00;99.90
21282;DHT22;10800;53.096;18.328;2023-01-20T19:57:16;0.10;99.90
21282;DHT22;10800;53.096;18.328;2023-01-20T20:02:22;0.10;99.90
21282;DHT22;10800;53.096;18.328;2023-01-20T20:07:27;0.10;99.90
21282;DHT22;10800;53.096;18.328;2023-01-20T20:12:32;0.10;99.90
21282;DHT22;10800;53.096;18.328;2023-01-20T20:17:38;0.10;99.90
21282;DHT22;10800;53.096;18.328;2023-01-20T20:22:43;0.10;99.90
21282;DHT22;10800;53.096;18.328;2023-01-20T20:27:48;0.20;99.90
21282;DHT22;10800;53.096;18.328;2023-01-20T20:32:54;0.20;99.90
21282;DHT22;10800;53.096;18.328;2023-01-20T20:37:59;0.20;99.90
21282;DHT22;10800;53.096;18.328;2023-01-20T20:43:05;0.30;99.90
21282;DHT22;10800;53.096;18.328;2023-01-20T20:48:10;0.30;99.90
21282;DHT22;10800;53.096;18.328;2023-01-20T20:53:15;0.30;99.90
21282;DHT22;10800;53.096;18.328;2023-01-20T20:58:22;0.30;99.90
21282;DHT22;10800;53.096;18.328;2023-01-20T21:03:30;0.30;99.90
21282;DHT22;10800;53.096;18.328;2023-01-20T21:08:38;0.40;99.90
21282;DHT22;10800;53.096;18.328;2023-01-20T21:13:47;0.40;99.90
21282;DHT22;10800;53.096;18.328;2023-01-20T21:18:55;0.30;99.90
21282;DHT22;10800;53.096;18.328;2023-01-20T21:24:01;0.40;99.90
21282;DHT22;10800;53.096;18.328;2023-01-20T21:29:11;0.40;99.90
21282;DHT22;10800;53.096;18.328;2023-01-20T21:34:16;0.40;99.90
21282;DHT22;10800;53.096;18.328;2023-01-20T21:39:22;0.40;99.90
21282;DHT22;10800;53.096;18.328;2023-01-20T21:44:27;0.40;99.90
21282;DHT22;10800;53.096;18.328;2023-01-20T21:49:33;0.40;99.90
21282;DHT22;10800;53.096;18.328;2023-01-20T21:54:56;0.40;99.90
21282;DHT22;10800;53.096;18.328;2023-01-20T22:00:04;0.40;99.90
21282;DHT22;10800;53.096;18.328;2023-01-20T22:05:10;0.40;99.90
21282;DHT22;10800;53.096;18.328;2023-01-20T22:10:16;0.40;99.90
21282;DHT22;10800;53.096;18.328;2023-01-20T22:15:21;0.40;99.90
21282;DHT22;10800;53.096;18.328;2023-01-20T22:20:27;0.50;99.90
21282;DHT22;10800;53.096;18.328;2023-01-20T22:25:34;0.50;99.90
21282;DHT22;10800;53.096;18.328;2023-01-20T22:30:39;0.60;99.90
21282;DHT22;10800;53.096;18.328;2023-01-20T22:35:44;0.60;99.90
21282;DHT22;10800;53.096;18.328;2023-01-20T22:40:50;0.60;99.90
21282;DHT22;10800;53.096;18.328;2023-01-20T22:46:02;0.70;99.90
21282;DHT22;10800;53.096;18.328;2023-01-20T22:51:15;0.60;99.90
21282;DHT22;10800;53.096;18.328;2023-01-20T22:56:23;0.70;99.90
21282;DHT22;10800;53.096;18.328;2023-01-20T23:01:31;0.70;99.90
21282;DHT22;10800;53.096;18.328;2023-01-20T23:06:37;0.70;99.90
21282;DHT22;10800;53.096;18.328;2023-01-20T23:11:42;0.80;99.90
21282;DHT22;10800;53.096;18.328;2023-01-20T23:16:48;0.80;99.90
21282;DHT22;10800;53.096;18.328;2023-01-20T23:21:53;0.80;99.90
21282;DHT22;10800;53.096;18.328;2023-01-20T23:26:58;0.80;99.90
21282;DHT22;10800;53.096;18.328;2023-01-20T23:32:04;0.80;99.90
21282;DHT22;10800;53.096;18.328;2023-01-20T23:37:09;0.80;99.90
21282;DHT22;10800;53.096;18.328;2023-01-20T23:42:15;0.80;99.90
21282;DHT22;10800;53.096;18.328;2023-01-20T23:47:22;0.90;99.90
21282;DHT22;10800;53.096;18.328;2023-01-20T23:52:27;1.00;99.90
21282;DHT22;10800;53.096;18.328;2023-01-20T23:57:32;0.90;99.90
